Skip Navigation LinksHome page > Weather > Current weather Skip Navigation Links

Current Weather

Brookhaven, Shirley, N.Y.

For information only: do not use for flight planning or navigation.
Latest weather
Observation time Saturday, July 11, 2020 10:56 PM EDT
Local time Saturday, July 11, 2020 11:10 PM EDT
Flight conditions Instrument Meteorological Conditions
Winds
Wind direction South-Southwest (210°)
Wind speed 8 mph
Visibility 10 mi.
Sky condition
Ceiling 500 ft. overcast
Cloud layer overcast 500 ft.
Temperature 75°F
Dewpoint 71°F
Altimeter 29.70 in.Hg
Pressure change last 3 hours-0.01 in.Hg
Pressure rising more quickly
Derived measurements
Relative humidity 88%
Density altitude 1718 ft.
Sea-level pressure 29.69 in.Hg
Remarks
Fully automated report.
Automated weather observing station with precipitation discriminator.
Lightning observed distant north.
METAR KHWV 120256Z AUTO 21007KT 10SM OVC005 24/22 A2970 RMK AO2 LTG DSNT N SLP055 T02390217 53003

Settings

Location code

InnerDrive.Weather 4.0.6770.0 Release CLR 4.0.30319.42000
Copyright ©2018 Inner Drive Technology. All rights reserved. Portions Copyright ©1986-2018 David Braverman.

Find weather

Site navigation


Skip Navigation Links

Place info

Page info

PayPal - The safer, easier way to pay online!

Return home.

Copyright ©2020 Inner Drive Technology. Purveyors of fine, hand-crafted computer software. Page printed 2020-07-12T03:10:37 UTC.